Time;durP1;ratioP1;P1;durP2;ratioP2;P2;SDS_P1;SDS_P2;PMS_P1;PMS_P2;Temp;Humidity;BMP_temperature;BMP_pressure;BME280_temperature;BME280_humidity;BME280_pressure;Samples;Min_cycle;Max_cycle;Signal;HPM_P1;HPM_P2
2021/08/29 00:01:54;;;;;;;5.35;4.85;;;15.00;79.80;;;;;;4998178;28;20037;-62
2021/08/29 00:04:20;;;;;;;5.55;5.07;;;15.00;79.60;;;;;;5000449;28;20026;-63
2021/08/29 00:06:46;;;;;;;5.20;4.80;;;14.90;79.60;;;;;;4996869;28;20470;-63
2021/08/29 00:09:11;;;;;;;5.15;4.70;;;14.90;79.60;;;;;;4994100;28;20030;-63
2021/08/29 00:11:37;;;;;;;5.57;5.07;;;14.90;79.60;;;;;;4991602;28;21889;-63
2021/08/29 00:14:03;;;;;;;5.72;5.10;;;14.90;79.70;;;;;;4993244;28;20034;-63
2021/08/29 00:16:29;;;;;;;5.57;4.90;;;14.90;79.70;;;;;;4992767;28;20066;-63
2021/08/29 00:18:54;;;;;;;5.57;5.18;;;14.90;79.80;;;;;;4993976;28;20516;-63
2021/08/29 00:21:20;;;;;;;5.82;5.38;;;14.90;79.90;;;;;;4987959;28;20033;-63
2021/08/29 00:23:46;;;;;;;5.75;5.30;;;14.90;80.00;;;;;;4994578;28;20401;-63
2021/08/29 00:26:11;;;;;;;5.60;5.10;;;14.90;80.00;;;;;;4997013;28;20030;-63
2021/08/29 00:28:37;;;;;;;5.72;5.07;;;14.90;80.00;;;;;;4992839;28;20034;-62
2021/08/29 00:31:03;;;;;;;6.25;5.63;;;14.90;80.00;;;;;;4995158;28;20448;-63
2021/08/29 00:33:28;;;;;;;5.97;5.38;;;15.00;80.00;;;;;;4992726;28;20529;-63
2021/08/29 00:35:56;;;;;;;6.45;5.82;;;14.90;80.00;;;;;;4994388;28;20061;-63
2021/08/29 00:38:21;;;;;;;5.95;5.45;;;15.00;80.00;;;;;;4993593;28;20514;-63
2021/08/29 00:40:49;;;;;;;6.25;5.65;;;14.90;79.90;;;;;;4997125;28;20038;-64
2021/08/29 00:43:15;;;;;;;6.18;5.55;;;14.90;79.80;;;;;;4992319;28;20034;-63
2021/08/29 00:45:41;;;;;;;5.97;5.47;;;14.90;79.80;;;;;;4996340;28;20096;-63
2021/08/29 00:48:08;;;;;;;5.97;5.40;;;14.90;79.80;;;;;;4996954;28;20121;-63
2021/08/29 00:50:33;;;;;;;6.45;5.85;;;14.90;79.70;;;;;;4999797;28;20046;-62
2021/08/29 00:53:05;;;;;;;6.88;6.18;;;14.90;79.60;;;;;;4998548;28;20034;-63
2021/08/29 00:55:31;;;;;;;6.30;5.72;;;14.90;79.80;;;;;;4997608;28;20437;-63
2021/08/29 00:57:57;;;;;;;6.05;5.40;;;14.90;79.70;;;;;;4998729;28;20038;-63
2021/08/29 01:00:22;;;;;;;7.68;5.70;;;14.90;79.70;;;;;;4997939;28;20037;-63
2021/08/29 01:02:48;;;;;;;5.97;5.47;;;14.90;79.80;;;;;;4995665;28;20034;-62
2021/08/29 01:05:23;;;;;;;6.05;5.55;;;14.90;79.80;;;;;;4997795;28;20042;-62
2021/08/29 01:08:00;;;;;;;6.93;6.32;;;14.90;80.00;;;;;;4996484;28;20460;-63
2021/08/29 01:10:59;;;;;;;5.90;5.40;;;14.90;80.10;;;;;;4999339;28;20049;-65
2021/08/29 01:13:33;;;;;;;5.80;5.30;;;14.90;80.20;;;;;;4995725;28;20033;-65
2021/08/29 01:16:05;;;;;;;5.88;5.30;;;14.80;79.60;;;;;;4997338;28;20026;-65
2021/08/29 01:18:32;;;;;;;5.85;5.25;;;14.90;79.80;;;;;;4996286;28;20054;-64
2021/08/29 01:21:12;;;;;;;6.80;5.90;;;14.90;79.70;;;;;;4996449;28;20172;-65
2021/08/29 01:23:40;;;;;;;6.65;6.05;;;14.90;80.00;;;;;;5002065;28;20104;-65
2021/08/29 01:26:35;;;;;;;6.20;5.63;;;14.80;79.70;;;;;;5000100;28;20561;-65
2021/08/29 01:29:06;;;;;;;6.30;5.70;;;14.80;80.20;;;;;;4987189;28;20046;-65
2021/08/29 01:31:34;;;;;;;5.95;5.45;;;14.80;79.80;;;;;;4999827;28;20384;-65
2021/08/29 01:34:07;;;;;;;5.82;5.32;;;14.80;79.80;;;;;;5010859;28;20031;-65
2021/08/29 01:36:34;;;;;;;6.05;5.55;;;14.80;80.10;;;;;;4997975;28;20030;-65
2021/08/29 01:39:02;;;;;;;5.82;5.32;;;14.70;80.00;;;;;;4999401;28;20049;-64
2021/08/29 01:41:28;;;;;;;9.20;5.75;;;14.70;80.00;;;;;;4999439;28;20092;-65
2021/08/29 01:43:54;;;;;;;6.68;5.65;;;14.70;80.00;;;;;;5014257;28;20036;-65
2021/08/29 01:46:21;;;;;;;6.40;5.55;;;14.70;80.00;;;;;;4996957;28;20038;-65
2021/08/29 01:48:47;;;;;;;5.78;5.20;;;14.70;80.10;;;;;;4995478;28;20117;-65
2021/08/29 01:51:14;;;;;;;5.80;5.30;;;14.70;80.10;;;;;;4996214;28;20040;-65
2021/08/29 01:53:40;;;;;;;6.00;5.50;;;14.70;80.20;;;;;;4996772;28;22296;-65
2021/08/29 01:56:07;;;;;;;5.40;4.90;;;14.60;80.20;;;;;;4998676;28;20037;-65
2021/08/29 01:58:33;;;;;;;6.88;6.00;;;14.70;80.30;;;;;;4997588;28;20108;-65
2021/08/29 02:01:01;;;;;;;6.47;5.90;;;14.70;80.30;;;;;;4998276;28;20521;-65
2021/08/29 02:03:29;;;;;;;6.68;6.07;;;14.60;81.00;;;;;;4995793;28;20042;-65
2021/08/29 02:06:05;;;;;;;6.10;5.55;;;14.60;80.30;;;;;;4997123;28;20524;-65
2021/08/29 02:08:31;;;;;;;6.30;5.70;;;14.60;80.50;;;;;;4994887;28;20042;-65
2021/08/29 02:11:00;;;;;;;6.45;5.85;;;14.60;80.40;;;;;;4996130;28;20064;-65
2021/08/29 02:13:28;;;;;;;6.20;5.63;;;14.60;80.50;;;;;;5001912;28;20030;-65
2021/08/29 02:16:07;;;;;;;6.07;5.57;;;14.60;80.50;;;;;;4994479;28;20030;-65
2021/08/29 02:18:35;;;;;;;6.60;5.63;;;14.60;80.80;;;;;;4998246;28;20038;-65
2021/08/29 02:21:01;;;;;;;5.95;5.45;;;14.50;80.30;;;;;;5015385;28;20084;-65
2021/08/29 02:23:29;;;;;;;6.07;5.43;;;14.50;80.30;;;;;;4997456;28;20148;-66
2021/08/29 02:25:56;;;;;;;6.03;5.53;;;14.50;80.30;;;;;;4994291;28;20037;-65
2021/08/29 02:28:23;;;;;;;6.50;5.90;;;14.50;80.40;;;;;;5001630;28;20391;-65
2021/08/29 02:30:49;;;;;;;7.97;5.70;;;14.50;80.50;;;;;;4995633;28;20117;-65
2021/08/29 02:33:16;;;;;;;6.13;5.47;;;14.50;80.50;;;;;;4995308;28;20121;-65
2021/08/29 02:35:42;;;;;;;6.15;5.47;;;14.50;80.40;;;;;;4993750;28;20042;-65
2021/08/29 02:38:09;;;;;;;6.65;5.93;;;14.50;80.30;;;;;;4998806;28;20029;-65
2021/08/29 02:40:42;;;;;;;8.27;6.40;;;14.50;80.30;;;;;;4996577;28;20053;-66
2021/08/29 02:43:09;;;;;;;7.15;6.38;;;14.60;80.50;;;;;;5005709;28;20037;-66
2021/08/29 02:45:36;;;;;;;6.70;6.10;;;14.50;80.30;;;;;;4996165;28;20053;-65
2021/08/29 02:48:02;;;;;;;7.15;6.45;;;14.50;80.30;;;;;;4995612;28;20212;-65
2021/08/29 02:50:30;;;;;;;6.95;6.20;;;14.50;80.30;;;;;;4996036;28;21265;-65
2021/08/29 02:52:56;;;;;;;7.20;6.50;;;14.50;80.30;;;;;;4994481;28;20041;-65
2021/08/29 02:55:22;;;;;;;6.78;6.05;;;14.50;80.40;;;;;;4995321;28;20088;-65
2021/08/29 02:57:54;;;;;;;6.85;6.25;;;14.50;80.50;;;;;;4994132;28;20038;-65
2021/08/29 03:00:20;;;;;;;6.82;6.13;;;14.50;80.50;;;;;;5000051;28;20083;-65
2021/08/29 03:02:46;;;;;;;6.00;5.50;;;14.50;80.50;;;;;;4995545;28;20041;-65
2021/08/29 03:05:12;;;;;;;6.85;6.25;;;14.40;80.30;;;;;;4993708;28;20413;-64
2021/08/29 03:07:38;;;;;;;7.00;6.32;;;14.50;80.30;;;;;;4994754;28;20845;-65
2021/08/29 03:10:04;;;;;;;6.78;6.13;;;14.50;80.40;;;;;;4992663;28;20033;-65
2021/08/29 03:12:30;;;;;;;6.82;6.13;;;14.40;80.30;;;;;;4993451;28;20033;-65
2021/08/29 03:14:56;;;;;;;7.28;6.57;;;14.50;80.50;;;;;;4997766;28;20038;-65
2021/08/29 03:17:22;;;;;;;6.78;6.18;;;14.50;80.50;;;;;;4998514;28;20513;-65
2021/08/29 03:19:51;;;;;;;6.93;6.22;;;14.40;80.50;;;;;;4991922;28;20038;-66
2021/08/29 03:22:17;;;;;;;6.68;6.07;;;14.50;80.60;;;;;;4992299;28;20505;-64
2021/08/29 03:24:43;;;;;;;6.72;6.10;;;14.50;80.50;;;;;;4997180;28;20076;-65
2021/08/29 03:27:10;;;;;;;7.22;6.30;;;14.50;80.40;;;;;;4995094;28;20061;-65
2021/08/29 03:29:35;;;;;;;6.72;6.13;;;14.50;80.40;;;;;;4996984;28;20080;-64
2021/08/29 03:32:01;;;;;;;6.95;6.05;;;14.50;80.30;;;;;;4999976;28;20034;-64
2021/08/29 03:34:28;;;;;;;7.18;6.47;;;14.50;80.30;;;;;;4993385;28;20050;-66
2021/08/29 03:36:55;;;;;;;7.03;6.35;;;14.50;80.50;;;;;;5000354;28;20042;-65
2021/08/29 03:39:25;;;;;;;7.70;6.53;;;14.50;80.60;;;;;;4998886;28;20045;-67
2021/08/29 03:41:54;;;;;;;6.53;5.93;;;14.50;80.50;;;;;;4993680;28;20031;-65
2021/08/29 03:44:20;;;;;;;6.40;5.80;;;14.50;80.40;;;;;;4994173;28;20034;-65
2021/08/29 03:46:45;;;;;;;8.68;6.47;;;14.50;80.40;;;;;;5001664;28;20057;-65
2021/08/29 03:49:11;;;;;;;7.00;6.30;;;14.50;80.40;;;;;;4998755;28;20387;-65
2021/08/29 03:51:39;;;;;;;6.53;5.93;;;14.50;80.30;;;;;;4999800;28;20505;-66
2021/08/29 03:54:06;;;;;;;6.50;5.90;;;14.50;80.30;;;;;;4994888;28;20053;-65
2021/08/29 03:56:34;;;;;;;6.95;6.35;;;14.50;80.30;;;;;;4993681;28;20117;-65
2021/08/29 03:59:01;;;;;;;6.72;6.03;;;14.50;80.40;;;;;;4993756;28;20041;-65
2021/08/29 04:01:26;;;;;;;6.43;5.82;;;14.50;80.40;;;;;;5000418;28;20031;-65
2021/08/29 04:03:52;;;;;;;6.68;6.07;;;14.40;80.30;;;;;;4993957;28;20084;-65
2021/08/29 04:06:18;;;;;;;6.75;6.07;;;14.40;80.50;;;;;;4993263;28;20088;-65
2021/08/29 04:08:49;;;;;;;6.55;5.95;;;14.50;80.60;;;;;;4992546;28;20050;-65
2021/08/29 04:11:28;;;;;;;7.07;6.40;;;14.40;80.60;;;;;;4990358;28;20085;-65
2021/08/29 04:13:54;;;;;;;6.32;5.72;;;14.50;80.70;;;;;;4993172;28;20085;-65
2021/08/29 04:16:20;;;;;;;6.45;5.68;;;14.40;80.60;;;;;;4997566;28;20034;-65
2021/08/29 04:18:47;;;;;;;6.93;6.22;;;14.50;80.50;;;;;;4991910;28;20057;-64
2021/08/29 04:21:22;;;;;;;6.75;6.05;;;14.50;80.60;;;;;;5001286;28;20031;-65
2021/08/29 04:23:48;;;;;;;6.88;6.28;;;14.50;80.50;;;;;;4997570;28;20473;-65
2021/08/29 04:26:14;;;;;;;6.95;6.32;;;14.50;80.40;;;;;;5001374;28;20144;-65
2021/08/29 04:28:40;;;;;;;12.32;9.38;;;14.40;80.40;;;;;;4998138;28;20030;-65
2021/08/29 04:31:11;;;;;;;7.93;7.13;;;14.50;80.50;;;;;;4998178;28;20057;-65
2021/08/29 04:33:37;;;;;;;8.30;7.45;;;14.50;80.60;;;;;;5003639;28;20476;-65
2021/08/29 04:36:08;;;;;;;7.90;6.82;;;14.50;80.50;;;;;;4996661;28;20044;-65
2021/08/29 04:38:34;;;;;;;7.20;6.50;;;14.40;80.70;;;;;;4999917;28;20058;-65
2021/08/29 04:41:00;;;;;;;7.95;6.90;;;14.50;80.80;;;;;;4998018;28;20034;-65
2021/08/29 04:43:26;;;;;;;6.95;6.25;;;14.50;80.80;;;;;;4996003;28;20184;-65
2021/08/29 04:45:53;;;;;;;7.18;6.47;;;14.40;80.70;;;;;;4997125;28;20795;-65
2021/08/29 04:48:18;;;;;;;6.78;6.18;;;14.50;80.80;;;;;;5003179;28;20034;-65
2021/08/29 04:50:44;;;;;;;6.72;6.13;;;14.50;80.80;;;;;;4995009;28;20037;-65
2021/08/29 04:53:10;;;;;;;6.93;6.22;;;14.50;80.80;;;;;;4996164;28;20080;-65
2021/08/29 04:55:36;;;;;;;6.50;5.90;;;14.50;80.80;;;;;;4996834;28;20069;-65
2021/08/29 04:58:02;;;;;;;6.18;5.57;;;14.50;80.80;;;;;;4998439;28;20049;-65
2021/08/29 05:00:28;;;;;;;6.30;5.70;;;14.40;80.70;;;;;;4995865;28;20053;-65
2021/08/29 05:02:53;;;;;;;6.65;5.70;;;14.50;80.80;;;;;;4999085;28;20030;-65
2021/08/29 05:05:19;;;;;;;6.60;6.00;;;14.40;80.70;;;;;;4998180;28;20049;-65
2021/08/29 05:07:45;;;;;;;6.72;6.13;;;14.40;80.90;;;;;;5000824;28;20042;-65
2021/08/29 05:10:10;;;;;;;6.30;5.75;;;14.30;81.10;;;;;;4999018;28;20041;-65
2021/08/29 05:12:36;;;;;;;6.95;6.25;;;14.30;81.20;;;;;;4997503;28;20072;-65
2021/08/29 05:15:02;;;;;;;6.50;5.80;;;14.30;81.20;;;;;;4996681;28;20129;-65
2021/08/29 05:17:28;;;;;;;7.72;6.72;;;14.30;81.30;;;;;;4999428;28;20049;-65
2021/08/29 05:19:53;;;;;;;7.60;6.90;;;14.20;81.50;;;;;;5001927;28;20476;-65
2021/08/29 05:22:19;;;;;;;8.13;6.53;;;14.30;81.80;;;;;;4995587;28;20088;-65
2021/08/29 05:24:45;;;;;;;8.30;7.50;;;14.30;81.90;;;;;;5002150;28;20796;-65
2021/08/29 05:27:10;;;;;;;7.18;6.47;;;14.30;81.90;;;;;;4996658;28;20038;-65
2021/08/29 05:29:36;;;;;;;6.78;6.07;;;14.30;81.90;;;;;;4997229;28;20061;-65
2021/08/29 05:32:01;;;;;;;8.40;6.25;;;14.30;81.90;;;;;;4994299;28;20061;-64
2021/08/29 05:34:27;;;;;;;8.75;7.90;;;14.30;81.90;;;;;;4997378;28;20449;-65
2021/08/29 05:36:53;;;;;;;8.02;7.22;;;14.30;81.90;;;;;;4999289;28;20057;-64
2021/08/29 05:39:18;;;;;;;7.55;6.43;;;14.40;82.00;;;;;;4995624;28;20026;-64
2021/08/29 05:41:44;;;;;;;9.07;7.82;;;14.40;82.00;;;;;;5002361;28;20030;-65
2021/08/29 05:44:10;;;;;;;9.00;8.20;;;14.40;81.90;;;;;;4999553;28;20034;-65
2021/08/29 05:46:35;;;;;;;7.65;6.45;;;14.40;81.90;;;;;;5007668;28;20041;-64
2021/08/29 05:49:01;;;;;;;8.88;8.00;;;14.50;81.90;;;;;;5000390;28;20045;-65
2021/08/29 05:51:27;;;;;;;7.68;6.82;;;14.50;82.60;;;;;;4998054;28;20026;-65
2021/08/29 05:53:52;;;;;;;9.95;8.95;;;14.50;81.70;;;;;;4999999;28;20046;-65
2021/08/29 05:56:18;;;;;;;9.82;7.43;;;14.50;81.60;;;;;;4999368;28;20038;-64
2021/08/29 05:58:43;;;;;;;7.97;7.18;;;14.50;81.50;;;;;;4996388;28;20702;-65
2021/08/29 06:01:13;;;;;;;8.57;7.75;;;14.50;81.60;;;;;;4995930;28;20052;-65
2021/08/29 06:03:39;;;;;;;7.57;6.88;;;14.50;81.70;;;;;;4989163;28;20037;-65
2021/08/29 06:06:05;;;;;;;7.35;6.65;;;14.50;81.70;;;;;;4998621;28;20083;-64
2021/08/29 06:08:30;;;;;;;7.20;6.50;;;14.50;81.70;;;;;;4995689;28;20045;-65
2021/08/29 06:10:57;;;;;;;6.82;6.15;;;14.50;81.70;;;;;;5015691;28;20497;-65
2021/08/29 06:13:23;;;;;;;7.05;6.22;;;14.50;81.60;;;;;;4995188;28;20029;-65
2021/08/29 06:15:48;;;;;;;7.95;6.32;;;14.50;81.50;;;;;;4995591;28;20037;-65
2021/08/29 06:18:14;;;;;;;8.80;6.78;;;14.50;81.50;;;;;;4995050;28;20069;-64
2021/08/29 06:20:41;;;;;;;7.72;6.00;;;14.50;82.30;;;;;;4997869;28;20068;-64
2021/08/29 06:23:07;;;;;;;10.95;8.30;;;14.50;81.40;;;;;;4996099;28;20058;-64
2021/08/29 06:25:32;;;;;;;15.65;12.07;;;14.50;81.40;;;;;;4998433;28;20085;-65
2021/08/29 06:27:58;;;;;;;13.45;10.65;;;14.50;81.50;;;;;;5003198;28;20433;-65
2021/08/29 06:30:24;;;;;;;7.60;6.85;;;14.50;81.60;;;;;;5004601;28;20084;-65
2021/08/29 06:32:50;;;;;;;7.80;7.00;;;14.50;81.70;;;;;;5004137;28;20061;-65
2021/08/29 06:35:15;;;;;;;6.93;6.22;;;14.50;81.90;;;;;;5006052;28;20030;-65
2021/08/29 06:37:41;;;;;;;6.28;5.70;;;14.50;81.90;;;;;;5005566;28;20034;-65
2021/08/29 06:40:07;;;;;;;6.28;5.68;;;14.50;81.90;;;;;;5005187;28;20061;-65
2021/08/29 06:42:33;;;;;;;7.78;6.53;;;14.60;81.90;;;;;;5004417;28;20034;-65
2021/08/29 06:44:59;;;;;;;7.30;6.60;;;14.50;81.80;;;;;;5006389;28;20038;-65
2021/08/29 06:47:24;;;;;;;6.82;6.20;;;14.60;81.90;;;;;;5001954;28;20046;-65
2021/08/29 06:49:50;;;;;;;6.53;5.93;;;14.50;81.80;;;;;;4990792;28;20030;-64
2021/08/29 06:52:15;;;;;;;8.57;6.25;;;14.60;81.90;;;;;;4999541;28;20034;-65
2021/08/29 06:54:41;;;;;;;7.40;6.70;;;14.60;81.90;;;;;;4992650;28;20034;-65
2021/08/29 06:57:06;;;;;;;9.93;8.93;;;14.60;82.00;;;;;;4999883;28;20042;-65
2021/08/29 06:59:32;;;;;;;12.95;9.68;;;14.60;82.00;;;;;;4992767;28;20044;-66
2021/08/29 07:01:58;;;;;;;7.65;6.95;;;14.60;82.20;;;;;;4998181;28;20030;-66
2021/08/29 07:04:23;;;;;;;8.38;6.70;;;14.60;82.30;;;;;;4995501;28;21685;-66
2021/08/29 07:06:49;;;;;;;7.63;6.30;;;14.60;82.20;;;;;;4999095;28;20034;-66
2021/08/29 07:09:14;;;;;;;6.97;6.28;;;14.60;82.10;;;;;;4997217;28;20049;-65
2021/08/29 07:11:40;;;;;;;6.82;6.13;;;14.70;82.10;;;;;;4999862;28;20116;-66
2021/08/29 07:14:06;;;;;;;6.38;5.78;;;14.70;82.20;;;;;;4999754;28;20038;-66
2021/08/29 07:16:31;;;;;;;6.35;5.75;;;14.70;82.20;;;;;;5017427;28;20042;-65
2021/08/29 07:18:57;;;;;;;8.38;7.15;;;14.70;82.20;;;;;;5002265;28;20037;-65
2021/08/29 07:21:23;;;;;;;7.03;5.38;;;14.70;82.10;;;;;;4998388;28;20035;-65
2021/08/29 07:23:49;;;;;;;6.35;5.38;;;14.70;82.20;;;;;;5000445;28;20046;-65
2021/08/29 07:26:15;;;;;;;8.20;7.40;;;14.70;82.20;;;;;;5000482;28;20088;-65
2021/08/29 07:28:42;;;;;;;5.90;5.32;;;14.70;82.30;;;;;;5000852;28;20505;-66
2021/08/29 07:31:08;;;;;;;6.32;5.72;;;14.70;82.20;;;;;;4995458;28;20085;-65
2021/08/29 07:33:33;;;;;;;6.90;5.80;;;14.80;82.30;;;;;;4998655;28;20035;-66
2021/08/29 07:35:59;;;;;;;9.48;7.20;;;14.70;82.20;;;;;;5000243;28;20048;-66
2021/08/29 07:38:25;;;;;;;9.60;7.30;;;14.70;82.30;;;;;;5001307;28;20030;-66
2021/08/29 07:40:50;;;;;;;6.93;6.00;;;14.70;82.50;;;;;;4991477;28;20046;-65
2021/08/29 07:43:16;;;;;;;6.22;5.60;;;14.70;82.60;;;;;;5001350;28;20474;-65
2021/08/29 07:45:42;;;;;;;6.22;5.63;;;14.80;82.70;;;;;;4999233;28;20034;-65
2021/08/29 07:48:07;;;;;;;8.43;7.53;;;14.80;82.70;;;;;;5001035;28;20034;-66
2021/08/29 07:50:33;;;;;;;6.53;5.93;;;14.80;82.90;;;;;;4998559;28;20120;-65
2021/08/29 07:52:58;;;;;;;7.30;5.28;;;14.90;82.90;;;;;;5001251;28;20036;-65
2021/08/29 07:55:24;;;;;;;6.40;5.53;;;14.90;82.80;;;;;;4996747;28;20521;-66
2021/08/29 07:57:50;;;;;;;6.53;5.90;;;14.90;82.90;;;;;;5000302;28;20037;-65
2021/08/29 08:00:16;;;;;;;6.28;5.68;;;14.90;82.70;;;;;;5000522;28;20083;-65
2021/08/29 08:02:41;;;;;;;6.53;5.90;;;15.00;82.70;;;;;;5000633;28;20045;-65
2021/08/29 08:05:07;;;;;;;5.82;5.32;;;15.00;82.60;;;;;;4995996;28;20038;-66
2021/08/29 08:07:33;;;;;;;5.35;4.85;;;15.00;82.60;;;;;;5000553;28;20034;-65
2021/08/29 08:09:58;;;;;;;5.50;5.00;;;15.10;82.70;;;;;;4995966;28;20040;-65
2021/08/29 08:12:24;;;;;;;5.13;4.63;;;15.10;82.50;;;;;;5000945;28;20068;-65
2021/08/29 08:14:50;;;;;;;7.93;6.90;;;15.20;82.60;;;;;;5001773;28;20109;-65
2021/08/29 08:17:16;;;;;;;5.70;5.20;;;15.20;82.60;;;;;;4999389;28;20033;-65
2021/08/29 08:19:42;;;;;;;5.13;4.68;;;15.20;82.50;;;;;;5002560;28;20038;-65
2021/08/29 08:22:07;;;;;;;6.40;4.95;;;15.30;82.30;;;;;;5002558;28;20509;-65
2021/08/29 08:24:33;;;;;;;4.90;4.45;;;15.30;82.40;;;;;;5005796;28;20057;-65
2021/08/29 08:26:58;;;;;;;6.00;5.40;;;15.30;82.50;;;;;;5004355;28;20026;-65
2021/08/29 08:29:26;;;;;;;5.70;5.20;;;15.30;82.30;;;;;;5004479;28;20038;-65
2021/08/29 08:31:52;;;;;;;12.13;9.88;;;15.40;82.20;;;;;;5004033;28;20049;-65
2021/08/29 08:34:19;;;;;;;12.73;9.98;;;15.40;82.20;;;;;;5000621;28;20046;-65
2021/08/29 08:36:44;;;;;;;8.35;7.45;;;15.40;82.10;;;;;;4995827;28;20050;-65
2021/08/29 08:39:10;;;;;;;8.07;6.32;;;15.40;82.00;;;;;;4998609;28;20087;-65
2021/08/29 08:41:35;;;;;;;5.57;5.00;;;15.40;81.90;;;;;;4995272;28;20518;-65
2021/08/29 08:44:01;;;;;;;5.85;5.32;;;15.40;81.90;;;;;;5002135;28;20442;-64
2021/08/29 08:46:27;;;;;;;9.80;8.55;;;15.50;82.00;;;;;;4998924;28;20565;-65
2021/08/29 08:48:53;;;;;;;6.97;6.28;;;15.40;82.20;;;;;;4999434;28;20045;-66
2021/08/29 08:51:25;;;;;;;5.53;5.03;;;15.40;82.30;;;;;;5000792;28;20064;-65
2021/08/29 08:53:53;;;;;;;6.03;5.47;;;15.50;82.20;;;;;;5000667;28;20038;-65
2021/08/29 08:56:21;;;;;;;6.25;5.65;;;15.50;82.20;;;;;;4997207;28;20497;-65
2021/08/29 08:58:48;;;;;;;6.50;5.90;;;15.50;82.30;;;;;;5000620;28;20037;-66
2021/08/29 09:01:14;;;;;;;5.97;5.38;;;15.50;82.40;;;;;;5002757;28;20039;-66
2021/08/29 09:03:41;;;;;;;5.85;5.35;;;15.50;82.40;;;;;;4997443;28;20607;-66
2021/08/29 09:06:07;;;;;;;7.05;6.35;;;15.60;83.30;;;;;;4998297;28;20076;-65
2021/08/29 09:08:35;;;;;;;6.38;5.72;;;15.60;82.80;;;;;;5004216;28;20501;-65
2021/08/29 09:11:02;;;;;;;8.80;7.45;;;15.60;82.80;;;;;;5004569;28;20034;-65
2021/08/29 09:13:47;;;;;;;6.75;5.65;;;15.70;82.60;;;;;;5006646;28;20129;-66
2021/08/29 09:16:15;;;;;;;5.47;4.97;;;15.80;83.10;;;;;;5004330;28;20034;-65
2021/08/29 09:18:51;;;;;;;5.32;4.82;;;15.70;82.40;;;;;;5001657;28;20038;-65
2021/08/29 09:21:27;;;;;;;6.05;5.45;;;15.80;82.90;;;;;;5004209;28;20443;-66
2021/08/29 09:23:54;;;;;;;9.82;7.38;;;15.80;82.40;;;;;;5006579;28;20503;-66
2021/08/29 09:26:22;;;;;;;7.43;5.95;;;15.80;82.20;;;;;;5004012;28;20034;-66
2021/08/29 09:28:49;;;;;;;12.70;10.02;;;15.90;82.00;;;;;;5006017;28;20424;-66
2021/08/29 09:31:17;;;;;;;6.00;5.40;;;15.90;81.90;;;;;;5004739;28;20484;-65
2021/08/29 09:33:43;;;;;;;8.27;5.82;;;15.90;81.70;;;;;;4999810;28;20044;-65
2021/08/29 09:36:10;;;;;;;6.32;5.18;;;16.00;81.50;;;;;;5002954;28;20589;-65
2021/08/29 09:38:41;;;;;;;8.90;6.85;;;16.00;81.50;;;;;;5003549;28;20904;-65
2021/08/29 09:41:21;;;;;;;7.00;6.30;;;16.00;81.70;;;;;;5004917;28;20064;-65
2021/08/29 09:43:47;;;;;;;5.47;4.63;;;16.10;81.80;;;;;;5002907;28;20049;-65
2021/08/29 09:46:12;;;;;;;4.55;4.15;;;16.10;82.20;;;;;;5005647;28;20563;-66
2021/08/29 09:48:38;;;;;;;4.90;4.15;;;16.20;80.90;;;;;;5006062;28;20044;-65
2021/08/29 09:51:03;;;;;;;5.00;4.30;;;16.20;80.70;;;;;;5000851;28;20522;-66
2021/08/29 09:53:44;;;;;;;4.25;3.88;;;16.20;80.60;;;;;;5001448;28;20112;-66
2021/08/29 09:56:23;;;;;;;4.15;3.85;;;16.30;80.80;;;;;;5003187;28;20109;-66
2021/08/29 09:58:52;;;;;;;3.20;2.97;;;16.30;81.50;;;;;;5003339;28;20103;-66
2021/08/29 10:01:18;;;;;;;2.75;2.55;;;16.30;80.50;;;;;;5002256;28;20034;-66
2021/08/29 10:03:49;;;;;;;2.60;2.40;;;16.30;80.00;;;;;;5003098;28;20083;-66
2021/08/29 10:06:29;;;;;;;2.88;2.67;;;16.30;79.90;;;;;;5004810;28;20042;-66
2021/08/29 10:08:58;;;;;;;2.80;2.60;;;16.30;79.70;;;;;;4999166;28;20046;-66
2021/08/29 10:11:27;;;;;;;2.55;2.08;;;16.30;79.60;;;;;;4999948;28;20030;-66
2021/08/29 10:13:54;;;;;;;1.65;1.55;;;16.40;79.50;;;;;;5004969;28;20631;-66
2021/08/29 10:16:22;;;;;;;1.60;1.50;;;16.40;79.20;;;;;;5006454;28;20034;-66
2021/08/29 10:18:50;;;;;;;1.23;1.13;;;16.40;78.90;;;;;;5005392;28;20038;-66
2021/08/29 10:21:22;;;;;;;1.15;1.05;;;16.40;78.60;;;;;;5006885;28;20022;-66
2021/08/29 10:23:51;;;;;;;1.17;1.02;;;16.40;78.70;;;;;;5005283;28;20099;-66
2021/08/29 10:26:19;;;;;;;1.20;1.10;;;16.40;78.90;;;;;;4999191;28;20030;-66
2021/08/29 10:29:07;;;;;;;1.38;1.27;;;16.40;78.70;;;;;;5007346;28;20038;-66
2021/08/29 10:31:41;;;;;;;1.30;1.20;;;16.40;78.80;;;;;;5005797;28;20041;-65
2021/08/29 10:34:08;;;;;;;2.37;1.70;;;16.40;78.90;;;;;;5004189;28;20030;-66
2021/08/29 10:36:35;;;;;;;1.77;1.67;;;16.40;79.00;;;;;;5006382;28;21082;-66
2021/08/29 10:39:01;;;;;;;1.90;1.80;;;16.40;79.10;;;;;;5006005;28;20029;-66
2021/08/29 10:41:27;;;;;;;1.80;1.70;;;16.40;79.60;;;;;;5005829;28;20056;-65
2021/08/29 10:43:53;;;;;;;1.75;1.65;;;16.40;78.70;;;;;;5005881;28;20041;-65
2021/08/29 10:46:20;;;;;;;2.13;1.92;;;16.40;80.00;;;;;;5005111;28;20038;-66
2021/08/29 10:48:48;;;;;;;1.58;1.48;;;16.30;79.40;;;;;;5004386;28;20088;-65
2021/08/29 10:51:17;;;;;;;1.60;1.50;;;16.30;79.40;;;;;;5006515;28;20062;-66
2021/08/29 10:53:50;;;;;;;1.83;1.70;;;16.30;79.80;;;;;;4998955;28;20038;-65
2021/08/29 10:56:16;;;;;;;2.10;2.00;;;16.20;80.30;;;;;;4998860;28;20053;-63
2021/08/29 10:58:46;;;;;;;2.50;2.30;;;16.20;80.30;;;;;;5003507;28;20061;-63
2021/08/29 11:01:34;;;;;;;2.85;2.22;;;16.30;80.50;;;;;;5003559;28;20030;-63
2021/08/29 11:04:20;;;;;;;2.20;2.10;;;16.30;81.50;;;;;;5000256;28;20085;-64
2021/08/29 11:06:48;;;;;;;2.75;2.03;;;16.30;80.80;;;;;;4999537;28;20037;-63
2021/08/29 11:09:35;;;;;;;2.05;1.95;;;16.30;80.50;;;;;;5001654;28;20046;-63
2021/08/29 11:12:00;;;;;;;2.28;2.08;;;16.20;81.10;;;;;;5002986;28;20564;-63
2021/08/29 11:14:52;;;;;;;2.35;2.15;;;16.20;80.70;;;;;;5002520;28;20125;-64
2021/08/29 11:17:23;;;;;;;2.40;2.05;;;16.10;82.20;;;;;;5001414;28;20038;-65
2021/08/29 11:19:55;;;;;;;1.80;1.70;;;16.10;81.40;;;;;;5001619;28;20493;-65
2021/08/29 11:22:25;;;;;;;2.00;1.90;;;16.10;81.30;;;;;;4999892;28;20069;-66
2021/08/29 11:24:52;;;;;;;1.83;1.73;;;16.10;81.10;;;;;;4999292;28;20038;-66
2021/08/29 11:27:44;;;;;;;2.38;2.17;;;16.10;81.40;;;;;;5003557;28;20034;-65
2021/08/29 11:30:22;;;;;;;1.73;1.63;;;16.00;82.00;;;;;;5002630;28;20034;-66
2021/08/29 11:33:00;;;;;;;2.25;2.15;;;16.00;81.90;;;;;;4996024;28;20034;-65
2021/08/29 11:35:31;;;;;;;1.77;1.67;;;16.00;82.40;;;;;;5001588;28;20077;-66
2021/08/29 11:38:13;;;;;;;1.70;1.60;;;16.00;82.30;;;;;;4998450;28;20061;-66
2021/08/29 11:40:56;;;;;;;2.10;1.50;;;15.90;82.40;;;;;;5000624;28;20040;-66
2021/08/29 11:43:21;;;;;;;1.63;1.52;;;16.00;83.60;;;;;;5000537;28;20044;-66
2021/08/29 11:45:56;;;;;;;1.15;1.15;;;16.00;83.40;;;;;;4997232;28;20030;-65
2021/08/29 11:48:23;;;;;;;;;;;16.10;83.70;;;;;;5000743;28;20030;-66
2021/08/29 11:50:50;;;;;;;1.70;1.60;;;16.20;83.60;;;;;;5001090;28;20443;-66
2021/08/29 11:53:16;;;;;;;1.60;1.50;;;16.30;82.90;;;;;;5006680;28;20057;-66
2021/08/29 11:55:42;;;;;;;1.60;1.50;;;16.40;82.70;;;;;;5000581;28;20148;-66
2021/08/29 11:58:21;;;;;;;1.40;1.30;;;16.50;83.10;;;;;;5001769;28;20136;-66
2021/08/29 12:00:48;;;;;;;1.02;1.02;;;16.60;83.10;;;;;;5004184;28;20552;-66
2021/08/29 12:03:15;;;;;;;1.30;1.20;;;16.60;82.60;;;;;;5000952;28;20030;-66
2021/08/29 12:05:59;;;;;;;1.13;1.10;;;16.70;83.60;;;;;;5002031;28;20033;-66
2021/08/29 12:08:33;;;;;;;0.93;0.80;;;16.70;82.80;;;;;;4999339;28;20580;-65
2021/08/29 12:11:00;;;;;;;0.60;0.60;;;16.80;82.70;;;;;;5000358;28;20041;-65
2021/08/29 12:13:30;;;;;;;0.57;0.57;;;16.80;82.40;;;;;;5002752;28;20118;-66
2021/08/29 12:16:01;;;;;;;0.80;0.80;;;16.90;82.40;;;;;;5000330;28;20057;-66
2021/08/29 12:18:27;;;;;;;0.60;0.60;;;17.00;82.50;;;;;;5000565;28;20038;-66
2021/08/29 12:20:53;;;;;;;0.68;0.60;;;17.00;82.80;;;;;;5002950;28;20046;-66
2021/08/29 12:23:20;;;;;;;0.38;0.38;;;17.10;81.80;;;;;;5003477;28;20045;-66
2021/08/29 12:25:56;;;;;;;0.95;0.82;;;17.20;81.70;;;;;;5001262;28;20038;-66
2021/08/29 12:28:22;;;;;;;1.60;1.50;;;17.20;81.10;;;;;;5000273;28;20528;-66
2021/08/29 12:30:54;;;;;;;0.68;0.60;;;17.30;80.80;;;;;;5003398;28;20057;-66
2021/08/29 12:33:20;;;;;;;0.45;0.45;;;17.30;80.80;;;;;;4996800;28;20031;-64
2021/08/29 12:35:46;;;;;;;0.30;0.30;;;17.40;81.00;;;;;;5001003;28;20406;-64
2021/08/29 12:38:27;;;;;;;0.30;0.30;;;17.50;81.00;;;;;;5002570;28;20702;-66
2021/08/29 12:40:54;;;;;;;0.57;0.40;;;17.50;80.30;;;;;;5003407;28;20076;-65
2021/08/29 12:43:20;;;;;;;0.40;0.40;;;17.60;80.10;;;;;;5003127;28;20034;-66
2021/08/29 12:45:47;;;;;;;0.20;0.20;;;17.60;80.00;;;;;;5004504;28;20414;-66
2021/08/29 12:48:12;;;;;;;0.20;0.20;;;17.60;79.90;;;;;;4997520;28;20514;-66
2021/08/29 12:51:03;;;;;;;0.30;0.30;;;17.70;80.00;;;;;;5006099;28;20044;-65